createdAt,value
2023-03-21T00:00:41.056Z,46.05
2023-03-21T00:03:08.865Z,56.67
2023-03-21T00:05:39.970Z,55.45
2023-03-21T00:08:06.850Z,65.85
2023-03-21T00:10:40.329Z,55.88
2023-03-21T00:13:13.483Z,67.00
2023-03-21T00:16:01.885Z,55.53
2023-03-21T00:18:30.948Z,59.70
2023-03-21T00:21:33.756Z,51.08
2023-03-21T00:23:48.782Z,55.47
2023-03-21T00:26:15.651Z,56.13
2023-03-21T00:28:43.305Z,53.38
2023-03-21T00:31:10.626Z,58.90
2023-03-21T00:33:39.278Z,53.83
2023-03-21T00:36:07.004Z,49.58
2023-03-21T00:38:34.543Z,62.08
2023-03-21T00:41:10.892Z,54.50
2023-03-21T00:43:42.039Z,50.65
2023-03-21T00:46:09.064Z,52.53
2023-03-21T00:48:36.376Z,52.97
2023-03-21T00:51:03.551Z,45.10
2023-03-21T00:53:31.288Z,52.53
2023-03-21T00:55:58.971Z,48.65
2023-03-21T00:58:26.299Z,56.35
2023-03-21T01:00:53.242Z,54.05
2023-03-21T01:03:24.778Z,63.03
2023-03-21T01:06:07.762Z,60.35
2023-03-21T01:08:50.657Z,63.50
2023-03-21T01:11:19.352Z,52.22
2023-03-21T01:13:53.682Z,53.13
2023-03-21T01:16:25.513Z,54.33
2023-03-21T01:18:52.829Z,59.33
2023-03-21T01:21:20.399Z,53.50
2023-03-21T01:23:47.785Z,62.53
2023-03-21T01:26:14.973Z,51.38
2023-03-21T01:28:44.697Z,59.90
2023-03-21T01:31:16.026Z,52.17
2023-03-21T01:33:43.302Z,55.42
2023-03-21T01:36:30.849Z,45.17
2023-03-21T01:39:02.990Z,51.88
2023-03-21T01:41:43.276Z,54.05
2023-03-21T01:44:26.171Z,46.65
2023-03-21T01:47:10.333Z,46.20
2023-03-21T01:49:46.285Z,39.95
2023-03-21T01:52:35.450Z,43.40
2023-03-21T01:55:08.006Z,40.28
2023-03-21T01:57:58.440Z,41.75
2023-03-21T02:00:33.284Z,40.58
2023-03-21T02:03:26.187Z,37.28
2023-03-21T02:06:35.442Z,35.20
2023-03-21T02:09:19.745Z,40.17
2023-03-21T02:11:47.176Z,37.72
2023-03-21T02:14:26.674Z,48.40
2023-03-21T02:17:03.819Z,36.83
2023-03-21T02:19:39.332Z,43.75
2023-03-21T02:22:29.129Z,41.63
2023-03-21T02:25:04.302Z,46.53
2023-03-21T02:27:41.029Z,46.28
2023-03-21T02:30:13.000Z,48.45
2023-03-21T02:32:49.733Z,49.42
2023-03-21T02:35:19.756Z,46.15
2023-03-21T02:37:58.569Z,48.85
2023-03-21T02:40:39.755Z,49.58
2023-03-21T02:43:20.784Z,56.10
2023-03-21T02:46:11.084Z,44.30
2023-03-21T02:48:50.203Z,48.20
2023-03-21T02:51:19.934Z,52.28
2023-03-21T02:53:51.857Z,44.75
2023-03-21T02:56:23.735Z,52.67
2023-03-21T02:58:54.684Z,51.83
2023-03-21T03:01:21.752Z,49.70
2023-03-21T03:03:49.432Z,46.22
2023-03-21T03:06:19.746Z,51.67
2023-03-21T03:09:05.621Z,53.90
2023-03-21T03:11:38.020Z,53.42
2023-03-21T03:14:38.397Z,48.35
2023-03-21T03:17:14.553Z,47.90
2023-03-21T03:19:57.319Z,47.13
2023-03-21T03:22:28.023Z,48.28
2023-03-21T03:25:19.837Z,55.00
2023-03-21T03:27:55.036Z,56.50
2023-03-21T03:30:25.490Z,50.35
2023-03-21T03:32:59.362Z,50.80
2023-03-21T03:35:26.560Z,57.75
2023-03-21T03:37:56.523Z,50.00
2023-03-21T03:40:45.522Z,47.72
2023-03-21T03:43:29.761Z,49.38
2023-03-21T03:46:03.166Z,50.88
2023-03-21T03:48:32.746Z,47.83
2023-03-21T03:51:02.554Z,42.17
2023-03-21T03:53:50.495Z,39.47
2023-03-21T03:56:17.460Z,43.42
2023-03-21T03:58:45.976Z,47.97
2023-03-21T04:01:16.000Z,43.50
2023-03-21T04:04:03.563Z,40.03
2023-03-21T04:06:32.385Z,37.63
2023-03-21T04:09:01.632Z,41.08
2023-03-21T04:11:31.235Z,39.08
2023-03-21T04:13:58.111Z,39.10
2023-03-21T04:16:25.951Z,35.38
2023-03-21T04:18:52.852Z,36.28
2023-03-21T04:21:19.897Z,39.05
2023-03-21T04:23:46.913Z,42.35
2023-03-21T04:26:13.732Z,44.20
2023-03-21T04:28:49.586Z,31.87
2023-03-21T04:31:36.448Z,28.83
2023-03-21T04:34:12.647Z,36.40
2023-03-21T04:36:45.922Z,36.45
2023-03-21T04:39:14.156Z,38.13
2023-03-21T04:41:44.100Z,33.08
2023-03-21T04:44:11.873Z,37.10
2023-03-21T04:46:39.490Z,34.17
2023-03-21T04:49:07.789Z,32.20
2023-03-21T04:51:35.952Z,32.65
2023-03-21T04:54:06.055Z,33.13
2023-03-21T04:56:33.966Z,33.00
2023-03-21T04:59:03.735Z,31.52
2023-03-21T05:01:30.936Z,33.75
2023-03-21T05:03:58.556Z,40.70
2023-03-21T05:06:26.566Z,38.78
2023-03-21T05:08:53.936Z,39.60
2023-03-21T05:11:20.666Z,31.65
2023-03-21T05:13:47.462Z,30.70
2023-03-21T05:16:14.386Z,31.00
2023-03-21T05:18:44.145Z,27.92
2023-03-21T05:21:18.361Z,30.25
2023-03-21T05:23:54.513Z,27.10
2023-03-21T05:26:22.144Z,27.90
2023-03-21T05:28:58.641Z,28.02
2023-03-21T05:31:25.727Z,24.73
2023-03-21T05:34:03.328Z,32.10
2023-03-21T05:36:30.302Z,30.77
2023-03-21T05:38:57.011Z,33.08
2023-03-21T05:41:23.912Z,28.90
2023-03-21T05:43:51.109Z,30.65
2023-03-21T05:46:18.076Z,26.77
2023-03-21T05:48:45.624Z,30.20
2023-03-21T05:51:15.373Z,31.38
2023-03-21T05:53:42.293Z,28.88
2023-03-21T05:56:09.682Z,22.73
2023-03-21T05:58:49.254Z,28.52
2023-03-21T06:01:16.109Z,25.10
2023-03-21T06:03:50.607Z,27.67
2023-03-21T06:06:21.839Z,30.58
2023-03-21T06:08:56.510Z,29.73
2023-03-21T06:11:25.957Z,30.33
2023-03-21T06:14:01.311Z,25.50
2023-03-21T06:16:28.901Z,25.92
2023-03-21T06:18:56.184Z,24.23
2023-03-21T06:21:35.533Z,31.27
2023-03-21T06:24:03.785Z,32.20
2023-03-21T06:26:31.186Z,31.73
2023-03-21T06:28:58.368Z,26.30
2023-03-21T06:31:26.685Z,26.75
2023-03-21T06:33:59.955Z,28.70
2023-03-21T06:36:26.790Z,23.48
2023-03-21T06:38:53.625Z,24.63
2023-03-21T06:41:20.769Z,24.77
2023-03-21T06:43:58.446Z,25.35
2023-03-21T06:46:25.811Z,20.25
2023-03-21T06:48:56.179Z,21.83
2023-03-21T06:51:30.934Z,29.45
2023-03-21T06:54:19.079Z,29.00
2023-03-21T06:57:13.566Z,20.02
2023-03-21T06:59:41.976Z,22.02
2023-03-21T07:02:11.483Z,27.42
2023-03-21T07:04:47.490Z,26.08
2023-03-21T07:07:19.405Z,24.77
2023-03-21T07:09:46.780Z,26.92
2023-03-21T07:12:13.494Z,29.63
2023-03-21T07:14:57.917Z,27.02
2023-03-21T07:17:24.801Z,30.55
2023-03-21T07:19:52.053Z,26.85
2023-03-21T07:22:19.485Z,33.35
2023-03-21T07:25:02.357Z,22.73
2023-03-21T07:27:33.368Z,23.50
2023-03-21T07:30:00.150Z,29.20
2023-03-21T07:32:29.954Z,26.95
2023-03-21T07:34:56.847Z,30.38
2023-03-21T07:37:24.067Z,31.48
2023-03-21T07:39:52.549Z,21.15
2023-03-21T07:42:20.412Z,27.63
2023-03-21T07:44:47.285Z,17.80
2023-03-21T07:47:13.987Z,20.90
2023-03-21T07:49:40.871Z,27.48
2023-03-21T07:52:08.019Z,25.90
2023-03-21T07:54:34.834Z,24.35
2023-03-21T07:57:01.673Z,27.77
2023-03-21T07:59:28.420Z,21.20
2023-03-21T08:01:55.282Z,26.40
2023-03-21T08:04:22.645Z,21.83
2023-03-21T08:06:50.332Z,19.63
2023-03-21T08:09:17.148Z,19.20
2023-03-21T08:11:44.024Z,13.82
2023-03-21T08:14:11.006Z,18.95
2023-03-21T08:16:37.842Z,17.67
2023-03-21T08:19:04.636Z,19.75
2023-03-21T08:21:31.590Z,21.70
2023-03-21T08:23:58.519Z,17.73
2023-03-21T08:26:26.576Z,16.65
2023-03-21T08:28:53.487Z,18.60
2023-03-21T08:31:21.794Z,20.33
2023-03-21T08:33:53.697Z,16.15
2023-03-21T08:36:21.674Z,23.35
2023-03-21T08:38:48.604Z,26.25
2023-03-21T08:41:15.679Z,28.55
2023-03-21T08:43:42.590Z,21.15
2023-03-21T08:46:09.511Z,20.13
2023-03-21T08:48:38.813Z,23.27
2023-03-21T08:51:06.339Z,26.75
2023-03-21T08:53:33.558Z,24.58
2023-03-21T08:56:00.676Z,33.55
2023-03-21T08:58:27.497Z,22.83
2023-03-21T09:00:54.413Z,24.38
2023-03-21T09:03:21.337Z,21.83
2023-03-21T09:05:48.281Z,20.13
2023-03-21T09:08:15.093Z,24.17
2023-03-21T09:10:41.808Z,19.23
2023-03-21T09:13:08.964Z,21.13
2023-03-21T09:15:36.411Z,21.05
2023-03-21T09:18:13.804Z,22.42
2023-03-21T09:20:40.944Z,25.70
2023-03-21T09:23:08.076Z,22.10
2023-03-21T09:25:35.002Z,20.75
2023-03-21T09:28:05.296Z,22.20
2023-03-21T09:30:33.293Z,18.25
2023-03-21T09:33:01.390Z,15.98
2023-03-21T09:35:28.374Z,33.15
2023-03-21T09:37:57.557Z,25.08
2023-03-21T09:40:28.246Z,17.95
2023-03-21T09:43:05.984Z,23.27
2023-03-21T09:45:38.503Z,20.65
2023-03-21T09:48:07.772Z,18.33
2023-03-21T09:50:38.926Z,19.90
2023-03-21T09:53:10.685Z,15.05
2023-03-21T09:55:39.753Z,16.25
2023-03-21T09:58:08.179Z,18.25
2023-03-21T10:00:37.571Z,17.13
2023-03-21T10:03:09.170Z,17.40
2023-03-21T10:05:43.218Z,16.00
2023-03-21T10:08:09.919Z,16.83
2023-03-21T10:10:45.062Z,18.23
2023-03-21T10:13:29.296Z,17.07
2023-03-21T10:15:57.133Z,15.50
2023-03-21T10:18:25.375Z,15.38
2023-03-21T10:20:52.338Z,18.88
2023-03-21T10:23:20.814Z,17.20
2023-03-21T10:26:02.157Z,13.27
2023-03-21T10:28:42.379Z,22.40
2023-03-21T10:31:25.405Z,17.10
2023-03-21T10:33:53.314Z,19.60
2023-03-21T10:36:25.941Z,18.00
2023-03-21T10:38:58.915Z,25.00
2023-03-21T10:41:25.793Z,21.30
2023-03-21T10:44:12.369Z,17.77
2023-03-21T10:46:39.535Z,17.73
2023-03-21T10:49:07.710Z,14.52
2023-03-21T10:51:36.375Z,14.50
2023-03-21T10:54:08.233Z,22.25
2023-03-21T10:56:36.732Z,22.83
2023-03-21T10:59:05.217Z,21.08
2023-03-21T11:01:36.685Z,17.10
2023-03-21T11:04:09.021Z,23.58
2023-03-21T11:06:39.346Z,17.33
2023-03-21T11:09:13.966Z,10.63
2023-03-21T11:11:42.536Z,14.00
2023-03-21T11:14:24.248Z,16.85
2023-03-21T11:16:51.665Z,15.00
2023-03-21T11:19:26.841Z,18.98
2023-03-21T11:21:53.682Z,17.53
2023-03-21T11:24:20.762Z,18.58
2023-03-21T11:26:49.695Z,17.80
2023-03-21T11:29:29.152Z,16.10
2023-03-21T11:32:09.600Z,15.65
2023-03-21T11:34:44.781Z,12.82
2023-03-21T11:37:19.182Z,18.58
2023-03-21T11:39:45.981Z,19.45
2023-03-21T11:42:32.929Z,20.70
2023-03-21T11:45:01.847Z,16.55
2023-03-21T11:47:28.964Z,16.15
2023-03-21T11:50:04.540Z,17.02
2023-03-21T11:52:37.816Z,13.38
2023-03-21T11:55:23.428Z,18.40
2023-03-21T11:58:00.186Z,19.58
2023-03-21T12:00:32.775Z,15.73
2023-03-21T12:03:05.347Z,18.42
2023-03-21T12:05:34.688Z,15.35
2023-03-21T12:08:01.438Z,13.00
2023-03-21T12:10:28.298Z,14.75
2023-03-21T12:12:55.411Z,13.27
2023-03-21T12:15:24.877Z,18.63
2023-03-21T12:18:11.177Z,12.98
2023-03-21T12:20:38.504Z,17.30
2023-03-21T12:23:11.469Z,18.30
2023-03-21T12:26:07.689Z,13.50
2023-03-21T12:28:34.515Z,15.93
2023-03-21T12:31:04.626Z,14.05
2023-03-21T12:33:57.675Z,12.20
2023-03-21T12:36:30.947Z,15.25
2023-03-21T12:39:03.830Z,12.50
2023-03-21T12:41:35.379Z,15.85
2023-03-21T12:44:29.840Z,16.33
2023-03-21T12:47:23.039Z,11.73
2023-03-21T12:49:54.060Z,12.73
2023-03-21T12:52:22.001Z,12.73
2023-03-21T12:54:52.570Z,16.15
2023-03-21T12:57:21.414Z,12.85
2023-03-21T13:00:11.079Z,14.30
2023-03-21T13:02:40.764Z,17.65
2023-03-21T13:05:22.505Z,15.57
2023-03-21T13:07:51.718Z,14.77
2023-03-21T13:10:23.272Z,16.30
2023-03-21T13:12:56.350Z,16.05
2023-03-21T13:15:45.084Z,16.38
2023-03-21T13:18:30.941Z,18.15
2023-03-21T13:20:59.351Z,13.02
2023-03-21T13:23:32.983Z,13.10
2023-03-21T13:25:59.844Z,15.00
2023-03-21T13:28:31.624Z,14.88
2023-03-21T13:31:19.013Z,18.08
2023-03-21T13:33:50.119Z,20.10
2023-03-21T13:36:22.489Z,16.67
2023-03-21T13:38:50.527Z,16.25
2023-03-21T13:41:48.856Z,18.20
2023-03-21T13:44:22.095Z,16.02
2023-03-21T13:47:15.432Z,14.68
2023-03-21T13:49:42.307Z,25.10
2023-03-21T13:52:08.959Z,18.15
2023-03-21T13:54:39.139Z,20.10
2023-03-21T13:57:06.978Z,20.05
2023-03-21T13:59:38.861Z,15.00
2023-03-21T14:02:12.238Z,17.40
2023-03-21T14:04:42.822Z,18.90
2023-03-21T14:07:22.990Z,19.23
2023-03-21T14:09:51.866Z,16.10
2023-03-21T14:12:19.960Z,10.48
2023-03-21T14:14:51.308Z,15.88
2023-03-21T14:17:25.261Z,13.98
2023-03-21T14:19:53.282Z,16.67
2023-03-21T14:22:20.124Z,13.60
2023-03-21T14:24:47.743Z,18.08
2023-03-21T14:27:14.691Z,14.65
2023-03-21T14:29:41.857Z,13.07
2023-03-21T14:32:18.075Z,16.45
2023-03-21T14:34:46.582Z,17.02
2023-03-21T14:37:13.415Z,14.32
2023-03-21T14:39:40.338Z,15.13
2023-03-21T14:42:08.215Z,14.65
2023-03-21T14:44:47.411Z,17.77
2023-03-21T14:47:21.863Z,18.50
2023-03-21T14:49:49.014Z,14.38
2023-03-21T14:52:26.247Z,15.82
2023-03-21T14:54:53.597Z,12.90
2023-03-21T14:57:22.062Z,13.80
2023-03-21T14:59:52.017Z,14.48
2023-03-21T15:02:21.986Z,14.52
2023-03-21T15:04:50.795Z,15.07
2023-03-21T15:07:29.696Z,18.75
2023-03-21T15:10:05.063Z,14.50
2023-03-21T15:12:32.122Z,13.93
2023-03-21T15:14:59.695Z,11.52
2023-03-21T15:17:26.580Z,17.85
2023-03-21T15:19:53.705Z,16.73
2023-03-21T15:22:24.999Z,18.80
2023-03-21T15:24:53.264Z,16.40
2023-03-21T15:27:23.843Z,19.83
2023-03-21T15:29:53.783Z,18.67
2023-03-21T15:32:22.853Z,20.92
2023-03-21T15:34:50.686Z,11.45
2023-03-21T15:37:22.022Z,12.35
2023-03-21T15:39:49.401Z,13.00
2023-03-21T15:42:29.904Z,27.85
2023-03-21T15:44:58.185Z,14.95
2023-03-21T15:47:50.694Z,15.75
2023-03-21T15:50:24.695Z,15.73
2023-03-21T15:52:52.243Z,18.15
2023-03-21T15:55:28.473Z,13.32
2023-03-21T15:58:01.370Z,16.63
2023-03-21T16:00:35.857Z,16.33
2023-03-21T16:03:06.521Z,17.52
2023-03-21T16:05:34.337Z,20.05
2023-03-21T16:08:31.521Z,22.05
2023-03-21T16:11:06.088Z,24.25
2023-03-21T16:13:32.888Z,21.98
2023-03-21T16:15:59.823Z,18.35
2023-03-21T16:18:26.624Z,19.70
2023-03-21T16:20:57.176Z,22.65
2023-03-21T16:23:23.962Z,22.65
2023-03-21T16:25:57.737Z,23.13
2023-03-21T16:28:24.965Z,23.23
2023-03-21T16:30:52.360Z,19.98
2023-03-21T16:33:19.193Z,17.13
2023-03-21T16:35:46.782Z,20.60
2023-03-21T16:38:13.988Z,14.50
2023-03-21T16:40:41.577Z,14.15
2023-03-21T16:43:08.836Z,12.73
2023-03-21T16:45:35.964Z,9.25
2023-03-21T16:48:03.239Z,10.48
2023-03-21T16:50:33.586Z,10.13
2023-03-21T16:53:00.559Z,9.63
2023-03-21T16:55:28.305Z,10.35
2023-03-21T16:57:55.794Z,10.10
2023-03-21T17:00:24.747Z,14.68
2023-03-21T17:02:52.232Z,12.15
2023-03-21T17:05:19.234Z,11.07
2023-03-21T17:07:47.013Z,14.40
2023-03-21T17:10:16.258Z,13.68
2023-03-21T17:12:43.011Z,9.35
2023-03-21T17:15:09.941Z,9.43
2023-03-21T17:17:36.777Z,9.48
2023-03-21T17:20:12.477Z,12.85
2023-03-21T17:22:39.459Z,18.75
2023-03-21T17:25:06.504Z,11.63
2023-03-21T17:27:33.426Z,10.63
2023-03-21T17:30:00.401Z,14.23
2023-03-21T17:32:27.338Z,9.82
2023-03-21T17:34:54.212Z,15.48
2023-03-21T17:37:21.919Z,12.18
2023-03-21T17:39:48.721Z,13.35
2023-03-21T17:42:15.954Z,11.45
2023-03-21T17:44:42.626Z,13.48
2023-03-21T17:47:13.217Z,10.85
2023-03-21T17:49:40.204Z,14.02
2023-03-21T17:52:07.058Z,13.77
2023-03-21T17:54:33.948Z,14.73
2023-03-21T17:57:01.224Z,16.00
2023-03-21T17:59:28.063Z,15.05
2023-03-21T18:01:54.933Z,18.33
2023-03-21T18:04:21.863Z,15.35
2023-03-21T18:06:48.906Z,14.77
2023-03-21T18:09:19.899Z,16.27
2023-03-21T18:11:48.426Z,15.63
2023-03-21T18:14:18.587Z,18.70
2023-03-21T18:16:49.128Z,13.50
2023-03-21T18:19:16.130Z,15.00
2023-03-21T18:21:45.247Z,17.48
2023-03-21T18:24:12.870Z,15.48
2023-03-21T18:26:39.926Z,18.52
2023-03-21T18:30:07.896Z,17.85
2023-03-21T18:32:05.441Z,17.00
2023-03-21T18:34:33.274Z,17.65
2023-03-21T18:37:03.678Z,17.63
2023-03-21T18:39:31.603Z,15.52
2023-03-21T18:42:02.567Z,16.17
2023-03-21T18:44:33.044Z,15.50
2023-03-21T18:46:59.951Z,19.67
2023-03-21T18:50:06.025Z,20.20
2023-03-21T18:52:13.477Z,17.33
2023-03-21T18:54:40.709Z,14.57
2023-03-21T18:59:56.811Z,15.90
2023-03-21T19:02:23.566Z,16.05
2023-03-21T19:04:50.594Z,18.60
2023-03-21T19:07:17.568Z,18.60
2023-03-21T19:10:10.707Z,17.17
2023-03-21T19:12:31.881Z,20.00
2023-03-21T19:14:58.743Z,20.25
2023-03-21T19:18:15.712Z,18.90
2023-03-21T19:20:14.310Z,20.25
2023-03-21T19:22:41.328Z,25.88
2023-03-21T19:25:09.373Z,21.73
2023-03-21T19:27:37.107Z,18.58
2023-03-21T19:30:14.429Z,16.38
2023-03-21T19:32:43.493Z,21.52
2023-03-21T19:35:10.742Z,18.83
2023-03-21T19:37:37.774Z,20.00
2023-03-21T19:40:05.719Z,20.67
2023-03-21T19:42:36.212Z,20.13
2023-03-21T19:45:04.099Z,18.40
2023-03-21T19:47:30.953Z,17.45
2023-03-21T19:52:44.519Z,17.52
2023-03-21T19:55:11.269Z,22.27
2023-03-21T19:57:37.976Z,23.63
2023-03-21T20:00:04.972Z,17.20
2023-03-21T20:02:35.909Z,17.67
2023-03-21T20:05:04.453Z,19.00
2023-03-21T20:07:32.980Z,18.88
2023-03-21T20:10:00.184Z,21.90
2023-03-21T20:12:27.552Z,16.35
2023-03-21T20:15:07.147Z,14.38
2023-03-21T20:17:38.884Z,22.27
2023-03-21T20:20:09.484Z,14.52
2023-03-21T20:23:05.338Z,17.52
2023-03-21T20:25:23.160Z,14.30
2023-03-21T20:28:09.379Z,15.82
2023-03-21T20:30:37.329Z,15.48
2023-03-21T20:33:04.392Z,17.20
2023-03-21T20:36:13.847Z,15.48
2023-03-21T20:38:20.643Z,17.08
2023-03-21T20:40:48.046Z,11.88
2023-03-21T20:44:04.895Z,17.65
2023-03-21T20:46:04.706Z,15.77
2023-03-21T20:48:31.853Z,13.50
2023-03-21T20:51:01.863Z,16.42
2023-03-21T20:53:29.695Z,16.10
2023-03-21T20:55:57.640Z,18.27
2023-03-21T20:58:54.798Z,18.08
2023-03-21T21:01:15.534Z,18.13
2023-03-21T21:03:44.629Z,23.75
2023-03-21T21:06:15.697Z,18.15
2023-03-21T21:08:45.560Z,19.70
2023-03-21T21:14:03.702Z,22.63
2023-03-21T21:16:30.740Z,22.63
2023-03-21T21:19:01.289Z,19.85
2023-03-21T21:21:28.122Z,18.10
2023-03-21T21:23:54.895Z,15.88
2023-03-21T21:26:21.690Z,18.35
2023-03-21T21:28:48.492Z,15.98
2023-03-21T21:31:16.664Z,13.32
2023-03-21T21:33:43.855Z,16.15
2023-03-21T21:36:12.066Z,15.70
2023-03-21T21:38:40.829Z,12.32
2023-03-21T21:41:09.520Z,9.57
2023-03-21T21:43:36.659Z,9.88
2023-03-21T21:46:03.460Z,18.15
2023-03-21T21:48:30.274Z,11.45
2023-03-21T21:51:01.608Z,9.90
2023-03-21T21:53:29.103Z,17.67
2023-03-21T21:55:56.053Z,10.38
2023-03-21T21:58:22.906Z,10.90
2023-03-21T22:00:52.457Z,13.70
2023-03-21T22:03:22.182Z,9.30
2023-03-21T22:05:49.946Z,8.35
2023-03-21T22:08:16.949Z,7.78
2023-03-21T22:10:45.093Z,9.27
2023-03-21T22:13:12.278Z,12.73
2023-03-21T22:15:38.956Z,9.70
2023-03-21T22:18:06.289Z,12.70
2023-03-21T22:20:33.961Z,10.48
2023-03-21T22:23:00.967Z,12.25
2023-03-21T22:25:27.790Z,8.75
2023-03-21T22:27:54.748Z,15.50
2023-03-21T22:30:21.475Z,14.57
2023-03-21T22:33:02.586Z,13.98
2023-03-21T22:35:35.399Z,16.77
2023-03-21T22:38:02.199Z,16.20
2023-03-21T22:40:29.004Z,16.90
2023-03-21T22:42:56.027Z,8.30
2023-03-21T22:45:23.061Z,16.63
2023-03-21T22:47:49.960Z,14.32
2023-03-21T22:50:16.839Z,13.75
2023-03-21T22:52:43.554Z,19.80
2023-03-21T22:55:12.625Z,10.35
2023-03-21T22:57:39.631Z,8.70
2023-03-21T23:00:13.833Z,9.88
2023-03-21T23:02:41.492Z,10.35
2023-03-21T23:05:08.873Z,15.73
2023-03-21T23:07:36.329Z,12.98
2023-03-21T23:10:05.155Z,7.75
2023-03-21T23:12:32.119Z,14.10
2023-03-21T23:14:59.886Z,9.70
2023-03-21T23:17:27.645Z,13.25
2023-03-21T23:19:54.410Z,17.73
2023-03-21T23:22:21.339Z,7.85
2023-03-21T23:24:49.141Z,12.10
2023-03-21T23:27:18.308Z,9.48
2023-03-21T23:29:45.484Z,8.73
2023-03-21T23:32:12.674Z,15.25
2023-03-21T23:34:39.745Z,9.73
2023-03-21T23:37:06.935Z,10.88
2023-03-21T23:39:34.574Z,9.75
2023-03-21T23:42:01.633Z,12.07
2023-03-21T23:44:28.526Z,14.35
2023-03-21T23:46:55.466Z,11.10
2023-03-21T23:49:22.300Z,10.95
2023-03-21T23:51:50.094Z,16.55
2023-03-21T23:54:17.059Z,11.52
2023-03-21T23:56:44.035Z,16.60
2023-03-21T23:59:10.879Z,11.73
